LVS137 CHY-SADF
Flight info
| Callsign | LVS137 |
|---|---|
| Flight time | N/A |
| Altitude | 1500 |
| Route | DCT SADF |
| Aircraft | ECHO/L-SFG/C |
Departure
| Time | N/A |
|---|---|
| Airport | CHY |
Arrival
| Time | 2026-04-18 20:04 |
|---|---|
| Airport | San Fernando Airport (SADF) |
| Time | Latitude | Longitude | Altitude | Speed | Heading |
|---|---|---|---|---|---|
| 2026-04-18 18:54 | -34.96028 | -60.03535 | 157 ft | 0 kts | 303° |
| 2026-04-18 19:03 | -34.96028 | -60.03536 | 157 ft | 0 kts | 303° |
| 2026-04-18 19:04 | -34.96022 | -60.03483 | 156 ft | 12 kts | 89° |
| 2026-04-18 19:04 | -34.96019 | -60.03407 | 156 ft | 7 kts | 88° |
| 2026-04-18 19:04 | -34.96019 | -60.03372 | 156 ft | 0 kts | 105° |
| 2026-04-18 19:04 | -34.96048 | -60.03322 | 156 ft | 8 kts | 141° |
| 2026-04-18 19:05 | -34.96069 | -60.03295 | 156 ft | 10 kts | 130° |
| 2026-04-18 19:05 | -34.96144 | -60.03194 | 155 ft | 9 kts | 135° |
| 2026-04-18 19:05 | -34.96194 | -60.03165 | 154 ft | 8 kts | 188° |
| 2026-04-18 19:06 | -34.96239 | -60.03189 | 154 ft | 6 kts | 206° |
| 2026-04-18 19:06 | -34.96240 | -60.03190 | 154 ft | 0 kts | 204° |
| 2026-04-18 19:07 | -34.96242 | -60.03191 | 154 ft | 3 kts | 197° |
| 2026-04-18 19:08 | -34.96321 | -60.03246 | 152 ft | 26 kts | 217° |
| 2026-04-18 19:08 | -34.96396 | -60.03357 | 152 ft | 12 kts | 285° |
| 2026-04-18 19:08 | -34.96370 | -60.03500 | 153 ft | 21 kts | 279° |
| 2026-04-18 19:08 | -34.96339 | -60.03719 | 153 ft | 33 kts | 279° |
| 2026-04-18 19:09 | -34.96300 | -60.03945 | 155 ft | 13 kts | 294° |
| 2026-04-18 19:09 | -34.96293 | -60.03966 | 156 ft | 0 kts | 222° |
| 2026-04-18 19:09 | -34.96304 | -60.03957 | 156 ft | 1 kts | 118° |
| 2026-04-18 19:09 | -34.96304 | -60.03956 | 156 ft | 0 kts | 102° |
| 2026-04-18 19:12 | -34.96307 | -60.03942 | 155 ft | 10 kts | 101° |
| 2026-04-18 19:12 | -34.96338 | -60.03664 | 154 ft | 54 kts | 101° |
| 2026-04-18 19:12 | -34.96448 | -60.03119 | 246 ft | 72 kts | 98° |
| 2026-04-18 19:13 | -34.96592 | -60.02449 | 303 ft | 89 kts | 102° |
| 2026-04-18 19:13 | -34.96773 | -60.01709 | 400 ft | 96 kts | 102° |
| 2026-04-18 19:13 | -34.96964 | -60.00893 | 477 ft | 94 kts | 101° |
| 2026-04-18 19:13 | -34.96919 | -60.00227 | 701 ft | 70 kts | 54° |
| 2026-04-18 19:14 | -34.96699 | -59.99674 | 833 ft | 75 kts | 63° |
| 2026-04-18 19:14 | -34.96488 | -59.99096 | 1028 ft | 74 kts | 62° |
| 2026-04-18 19:14 | -34.96289 | -59.98518 | 1264 ft | 75 kts | 60° |
| 2026-04-18 19:14 | -34.96092 | -59.97940 | 1453 ft | 72 kts | 59° |
| 2026-04-18 19:15 | -34.95865 | -59.97333 | 1483 ft | 82 kts | 63° |
| 2026-04-18 19:15 | -34.95636 | -59.96672 | 1499 ft | 90 kts | 62° |
| 2026-04-18 19:15 | -34.95465 | -59.96194 | 1493 ft | 95 kts | 62° |
| 2026-04-18 19:15 | -34.95113 | -59.95194 | 1490 ft | 95 kts | 63° |
| 2026-04-18 19:16 | -34.94934 | -59.94698 | 1493 ft | 98 kts | 62° |
| 2026-04-18 19:16 | -34.94663 | -59.93922 | 1480 ft | 98 kts | 63° |
| 2026-04-18 19:16 | -34.94399 | -59.93178 | 1476 ft | 94 kts | 61° |
| 2026-04-18 19:16 | -34.94133 | -59.92454 | 1477 ft | 95 kts | 60° |
| 2026-04-18 19:17 | -34.93867 | -59.91725 | 1481 ft | 94 kts | 62° |
| 2026-04-18 19:17 | -34.93604 | -59.90998 | 1488 ft | 94 kts | 61° |
| 2026-04-18 19:17 | -34.93330 | -59.90242 | 1465 ft | 100 kts | 61° |
| 2026-04-18 19:17 | -34.93057 | -59.89474 | 1470 ft | 100 kts | 62° |
| 2026-04-18 19:18 | -34.92784 | -59.88685 | 1473 ft | 101 kts | 63° |
| 2026-04-18 19:18 | -34.92520 | -59.87903 | 1455 ft | 99 kts | 64° |
| 2026-04-18 19:18 | -34.92276 | -59.87132 | 1459 ft | 97 kts | 66° |
| 2026-04-18 19:18 | -34.92045 | -59.86352 | 1468 ft | 99 kts | 67° |
| 2026-04-18 19:19 | -34.91808 | -59.85558 | 1458 ft | 99 kts | 64° |
| 2026-04-18 19:19 | -34.91547 | -59.84793 | 1460 ft | 97 kts | 64° |
| 2026-04-18 19:19 | -34.91294 | -59.84037 | 1465 ft | 96 kts | 64° |
| 2026-04-18 19:19 | -34.91045 | -59.83283 | 1455 ft | 95 kts | 64° |
| 2026-04-18 19:20 | -34.90801 | -59.82532 | 1459 ft | 96 kts | 64° |
| 2026-04-18 19:20 | -34.90567 | -59.81779 | 1450 ft | 95 kts | 65° |
| 2026-04-18 19:20 | -34.90345 | -59.81038 | 1456 ft | 93 kts | 66° |
| 2026-04-18 19:20 | -34.90137 | -59.80306 | 1458 ft | 90 kts | 67° |
| 2026-04-18 19:21 | -34.89932 | -59.79578 | 1460 ft | 92 kts | 65° |
| 2026-04-18 19:21 | -34.89720 | -59.78850 | 1449 ft | 91 kts | 65° |
| 2026-04-18 19:21 | -34.89510 | -59.78122 | 1462 ft | 92 kts | 66° |
| 2026-04-18 19:21 | -34.89292 | -59.77380 | 1465 ft | 96 kts | 66° |
| 2026-04-18 19:22 | -34.89059 | -59.76609 | 1478 ft | 97 kts | 67° |
| 2026-04-18 19:22 | -34.88833 | -59.75828 | 1470 ft | 98 kts | 67° |
| 2026-04-18 19:22 | -34.88604 | -59.75026 | 1473 ft | 101 kts | 67° |
| 2026-04-18 19:22 | -34.88380 | -59.74225 | 1481 ft | 100 kts | 69° |
| 2026-04-18 19:23 | -34.88138 | -59.73428 | 1467 ft | 98 kts | 62° |
| 2026-04-18 19:23 | -34.87859 | -59.72679 | 1468 ft | 98 kts | 63° |
| 2026-04-18 19:23 | -34.87596 | -59.71949 | 1455 ft | 92 kts | 62° |
| 2026-04-18 19:23 | -34.87340 | -59.71247 | 1451 ft | 89 kts | 62° |
| 2026-04-18 19:24 | -34.87093 | -59.70569 | 1467 ft | 88 kts | 61° |
| 2026-04-18 19:24 | -34.86838 | -59.69868 | 1459 ft | 91 kts | 62° |
| 2026-04-18 19:24 | -34.86580 | -59.69169 | 1461 ft | 89 kts | 61° |
| 2026-04-18 19:24 | -34.86327 | -59.68485 | 1461 ft | 89 kts | 62° |
| 2026-04-18 19:25 | -34.86073 | -59.67790 | 1466 ft | 92 kts | 61° |
| 2026-04-18 19:25 | -34.85808 | -59.67061 | 1476 ft | 95 kts | 61° |
| 2026-04-18 19:25 | -34.85537 | -59.66333 | 1476 ft | 95 kts | 62° |
| 2026-04-18 19:25 | -34.85266 | -59.65587 | 1469 ft | 98 kts | 62° |
| 2026-04-18 19:26 | -34.84992 | -59.64840 | 1467 ft | 97 kts | 63° |
| 2026-04-18 19:26 | -34.84717 | -59.64088 | 1470 ft | 97 kts | 63° |
| 2026-04-18 19:26 | -34.84441 | -59.63341 | 1473 ft | 97 kts | 62° |
| 2026-04-18 19:26 | -34.84164 | -59.62595 | 1477 ft | 98 kts | 62° |
| 2026-04-18 19:27 | -34.83885 | -59.61837 | 1477 ft | 97 kts | 62° |
| 2026-04-18 19:27 | -34.83607 | -59.61077 | 1475 ft | 98 kts | 63° |
| 2026-04-18 19:27 | -34.83332 | -59.60328 | 1470 ft | 96 kts | 62° |
| 2026-04-18 19:27 | -34.83060 | -59.59590 | 1459 ft | 94 kts | 62° |
| 2026-04-18 19:28 | -34.82794 | -59.58870 | 1462 ft | 92 kts | 62° |
| 2026-04-18 19:28 | -34.82535 | -59.58169 | 1465 ft | 91 kts | 62° |
| 2026-04-18 19:28 | -34.82269 | -59.57449 | 1464 ft | 95 kts | 62° |
| 2026-04-18 19:28 | -34.82004 | -59.56725 | 1466 ft | 93 kts | 63° |
| 2026-04-18 19:29 | -34.81736 | -59.56000 | 1468 ft | 94 kts | 62° |
| 2026-04-18 19:29 | -34.81470 | -59.55271 | 1464 ft | 93 kts | 62° |
| 2026-04-18 19:29 | -34.81203 | -59.54547 | 1451 ft | 93 kts | 61° |
| 2026-04-18 19:29 | -34.80941 | -59.53844 | 1464 ft | 90 kts | 61° |
| 2026-04-18 19:30 | -34.80673 | -59.53140 | 1465 ft | 92 kts | 62° |
| 2026-04-18 19:30 | -34.80412 | -59.52422 | 1466 ft | 93 kts | 63° |
| 2026-04-18 19:30 | -34.80152 | -59.51715 | 1461 ft | 90 kts | 62° |
| 2026-04-18 19:30 | -34.79894 | -59.51008 | 1471 ft | 92 kts | 62° |
| 2026-04-18 19:31 | -34.79630 | -59.50291 | 1469 ft | 93 kts | 63° |
| 2026-04-18 19:31 | -34.79372 | -59.49584 | 1467 ft | 91 kts | 62° |
| 2026-04-18 19:31 | -34.79111 | -59.48886 | 1460 ft | 89 kts | 62° |
| 2026-04-18 19:31 | -34.78852 | -59.48190 | 1466 ft | 91 kts | 62° |
| 2026-04-18 19:32 | -34.78600 | -59.47502 | 1462 ft | 91 kts | 62° |
| 2026-04-18 19:32 | -34.78337 | -59.46794 | 1469 ft | 93 kts | 61° |
| 2026-04-18 19:32 | -34.78069 | -59.46070 | 1466 ft | 95 kts | 63° |
| 2026-04-18 19:32 | -34.77799 | -59.45334 | 1480 ft | 96 kts | 62° |
| 2026-04-18 19:33 | -34.77521 | -59.44583 | 1477 ft | 96 kts | 63° |
| 2026-04-18 19:33 | -34.77244 | -59.43828 | 1473 ft | 99 kts | 62° |
| 2026-04-18 19:33 | -34.76959 | -59.43062 | 1479 ft | 101 kts | 62° |
| 2026-04-18 19:33 | -34.76678 | -59.42297 | 1474 ft | 96 kts | 63° |
| 2026-04-18 19:34 | -34.76407 | -59.41557 | 1475 ft | 95 kts | 62° |
| 2026-04-18 19:34 | -34.76134 | -59.40831 | 1470 ft | 94 kts | 63° |
| 2026-04-18 19:34 | -34.75865 | -59.40108 | 1459 ft | 91 kts | 62° |
| 2026-04-18 19:34 | -34.75612 | -59.39426 | 1469 ft | 89 kts | 61° |
| 2026-04-18 19:35 | -34.75360 | -59.38749 | 1463 ft | 86 kts | 62° |
| 2026-04-18 19:35 | -34.75108 | -59.38074 | 1462 ft | 90 kts | 62° |
| 2026-04-18 19:35 | -34.74857 | -59.37393 | 1474 ft | 89 kts | 61° |
| 2026-04-18 19:35 | -34.74602 | -59.36696 | 1457 ft | 88 kts | 62° |
| 2026-04-18 19:36 | -34.74347 | -59.36013 | 1467 ft | 90 kts | 61° |
| 2026-04-18 19:36 | -34.74085 | -59.35306 | 1477 ft | 94 kts | 61° |
| 2026-04-18 19:36 | -34.73815 | -59.34582 | 1480 ft | 97 kts | 62° |
| 2026-04-18 19:36 | -34.73537 | -59.33837 | 1483 ft | 96 kts | 63° |
| 2026-04-18 19:37 | -34.73260 | -59.33086 | 1468 ft | 97 kts | 62° |
| 2026-04-18 19:37 | -34.72987 | -59.32351 | 1481 ft | 97 kts | 63° |
| 2026-04-18 19:37 | -34.72708 | -59.31596 | 1486 ft | 98 kts | 63° |
| 2026-04-18 19:37 | -34.72425 | -59.30824 | 1477 ft | 100 kts | 62° |
| 2026-04-18 19:38 | -34.72139 | -59.30043 | 1477 ft | 102 kts | 62° |
| 2026-04-18 19:38 | -34.71852 | -59.29272 | 1468 ft | 97 kts | 62° |
| 2026-04-18 19:38 | -34.71573 | -59.28531 | 1473 ft | 97 kts | 63° |
| 2026-04-18 19:38 | -34.71299 | -59.27797 | 1463 ft | 94 kts | 62° |
| 2026-04-18 19:39 | -34.71029 | -59.27075 | 1467 ft | 95 kts | 62° |
| 2026-04-18 19:39 | -34.70755 | -59.26344 | 1468 ft | 98 kts | 61° |
| 2026-04-18 19:39 | -34.70475 | -59.25587 | 1466 ft | 98 kts | 62° |
| 2026-04-18 19:39 | -34.70199 | -59.24835 | 1473 ft | 97 kts | 62° |
| 2026-04-18 19:40 | -34.69916 | -59.24093 | 1464 ft | 96 kts | 62° |
| 2026-04-18 19:40 | -34.69637 | -59.23350 | 1476 ft | 97 kts | 63° |
| 2026-04-18 19:40 | -34.69364 | -59.22597 | 1479 ft | 98 kts | 62° |
| 2026-04-18 19:40 | -34.69080 | -59.21834 | 1483 ft | 101 kts | 62° |
| 2026-04-18 19:41 | -34.68795 | -59.21067 | 1476 ft | 98 kts | 63° |
| 2026-04-18 19:41 | -34.68577 | -59.20304 | 1465 ft | 98 kts | 86° |
| 2026-04-18 19:41 | -34.68800 | -59.19524 | 1466 ft | 99 kts | 98° |
| 2026-04-18 19:41 | -34.68689 | -59.18738 | 1474 ft | 93 kts | 62° |
| 2026-04-18 19:42 | -34.68442 | -59.17996 | 1469 ft | 96 kts | 66° |
| 2026-04-18 19:42 | -34.68211 | -59.17241 | 1473 ft | 94 kts | 64° |
| 2026-04-18 19:42 | -34.67971 | -59.16523 | 1470 ft | 90 kts | 59° |
| 2026-04-18 19:42 | -34.67692 | -59.15829 | 1471 ft | 93 kts | 62° |
| 2026-04-18 19:43 | -34.67426 | -59.15135 | 1473 ft | 92 kts | 62° |
| 2026-04-18 19:43 | -34.67152 | -59.14422 | 1468 ft | 95 kts | 61° |
| 2026-04-18 19:43 | -34.66870 | -59.13686 | 1475 ft | 97 kts | 62° |
| 2026-04-18 19:43 | -34.66582 | -59.12950 | 1482 ft | 98 kts | 61° |
| 2026-04-18 19:44 | -34.66291 | -59.12206 | 1487 ft | 97 kts | 62° |
| 2026-04-18 19:44 | -34.65995 | -59.11441 | 1474 ft | 100 kts | 62° |
| 2026-04-18 19:44 | -34.65414 | -59.09943 | 1483 ft | 99 kts | 61° |
| 2026-04-18 19:45 | -34.65113 | -59.09182 | 1479 ft | 99 kts | 61° |
| 2026-04-18 19:45 | -34.64820 | -59.08435 | 1482 ft | 98 kts | 63° |
| 2026-04-18 19:45 | -34.64532 | -59.07689 | 1481 ft | 99 kts | 62° |
| 2026-04-18 19:45 | -34.64240 | -59.06929 | 1479 ft | 99 kts | 61° |
| 2026-04-18 19:46 | -34.63947 | -59.06175 | 1482 ft | 100 kts | 61° |
| 2026-04-18 19:46 | -34.63652 | -59.05410 | 1486 ft | 100 kts | 62° |
| 2026-04-18 19:46 | -34.63355 | -59.04653 | 1466 ft | 95 kts | 62° |
| 2026-04-18 19:46 | -34.63073 | -59.03928 | 1474 ft | 95 kts | 60° |
| 2026-04-18 19:47 | -34.62788 | -59.03200 | 1480 ft | 97 kts | 60° |
| 2026-04-18 19:47 | -34.62493 | -59.02448 | 1471 ft | 99 kts | 61° |
| 2026-04-18 19:47 | -34.62199 | -59.01695 | 1478 ft | 99 kts | 61° |
| 2026-04-18 19:47 | -34.61905 | -59.00940 | 1483 ft | 99 kts | 62° |
| 2026-04-18 19:48 | -34.61611 | -59.00182 | 1484 ft | 102 kts | 62° |
| 2026-04-18 19:48 | -34.61311 | -58.99414 | 1490 ft | 100 kts | 63° |
| 2026-04-18 19:48 | -34.61013 | -58.98659 | 1484 ft | 98 kts | 60° |
| 2026-04-18 19:48 | -34.60719 | -58.97916 | 1477 ft | 97 kts | 62° |
| 2026-04-18 19:49 | -34.60436 | -58.97177 | 1472 ft | 95 kts | 62° |
| 2026-04-18 19:49 | -34.60150 | -58.96465 | 1485 ft | 94 kts | 60° |
| 2026-04-18 19:49 | -34.59858 | -58.95765 | 1486 ft | 92 kts | 64° |
| 2026-04-18 19:49 | -34.59591 | -58.95037 | 1487 ft | 96 kts | 61° |
| 2026-04-18 19:50 | -34.59305 | -58.94296 | 1489 ft | 98 kts | 62° |
| 2026-04-18 19:50 | -34.59016 | -58.93544 | 1489 ft | 98 kts | 62° |
| 2026-04-18 19:50 | -34.58727 | -58.92791 | 1487 ft | 99 kts | 62° |
| 2026-04-18 19:50 | -34.58434 | -58.92044 | 1490 ft | 99 kts | 61° |
| 2026-04-18 19:51 | -34.58138 | -58.91287 | 1486 ft | 101 kts | 62° |
| 2026-04-18 19:51 | -34.57840 | -58.90521 | 1489 ft | 101 kts | 61° |
| 2026-04-18 19:51 | -34.57535 | -58.89743 | 1491 ft | 99 kts | 62° |
| 2026-04-18 19:51 | -34.57243 | -58.89003 | 1476 ft | 98 kts | 61° |
| 2026-04-18 19:52 | -34.56926 | -58.88299 | 1478 ft | 91 kts | 52° |
| 2026-04-18 19:52 | -34.56584 | -58.87659 | 1484 ft | 91 kts | 54° |
| 2026-04-18 19:52 | -34.56197 | -58.87077 | 1478 ft | 89 kts | 51° |
| 2026-04-18 19:52 | -34.55870 | -58.86426 | 1477 ft | 91 kts | 53° |
| 2026-04-18 19:53 | -34.55533 | -58.85778 | 1482 ft | 91 kts | 53° |
| 2026-04-18 19:53 | -34.55194 | -58.85134 | 1486 ft | 91 kts | 53° |
| 2026-04-18 19:53 | -34.54513 | -58.83791 | 1498 ft | 95 kts | 54° |
| 2026-04-18 19:54 | -34.54165 | -58.83100 | 1490 ft | 96 kts | 55° |
| 2026-04-18 19:54 | -34.53816 | -58.82416 | 1493 ft | 96 kts | 55° |
| 2026-04-18 19:54 | -34.53462 | -58.81719 | 1495 ft | 97 kts | 54° |
| 2026-04-18 19:54 | -34.53108 | -58.81027 | 1492 ft | 101 kts | 54° |
| 2026-04-18 19:55 | -34.52735 | -58.80286 | 1498 ft | 101 kts | 55° |
| 2026-04-18 19:55 | -34.52375 | -58.79575 | 1488 ft | 98 kts | 55° |
| 2026-04-18 19:55 | -34.52019 | -58.78869 | 1491 ft | 100 kts | 54° |
| 2026-04-18 19:55 | -34.51658 | -58.78160 | 1485 ft | 97 kts | 55° |
| 2026-04-18 19:56 | -34.51305 | -58.77463 | 1482 ft | 96 kts | 54° |
| 2026-04-18 19:56 | -34.50956 | -58.76777 | 1487 ft | 96 kts | 55° |
| 2026-04-18 19:56 | -34.50609 | -58.76090 | 1489 ft | 96 kts | 54° |
| 2026-04-18 19:56 | -34.50257 | -58.75396 | 1488 ft | 97 kts | 54° |
| 2026-04-18 19:57 | -34.49904 | -58.74709 | 1484 ft | 97 kts | 54° |
| 2026-04-18 19:57 | -34.49547 | -58.74012 | 1480 ft | 95 kts | 54° |
| 2026-04-18 19:57 | -34.49202 | -58.73332 | 1487 ft | 96 kts | 54° |
| 2026-04-18 19:57 | -34.48858 | -58.72658 | 1483 ft | 94 kts | 55° |
| 2026-04-18 19:58 | -34.48501 | -58.71954 | 1394 ft | 102 kts | 54° |
| 2026-04-18 19:58 | -34.48120 | -58.71200 | 1285 ft | 107 kts | 54° |
| 2026-04-18 19:58 | -34.47725 | -58.70420 | 1169 ft | 109 kts | 56° |
| 2026-04-18 19:58 | -34.47334 | -58.69639 | 1059 ft | 108 kts | 54° |
| 2026-04-18 19:59 | -34.46939 | -58.68867 | 999 ft | 107 kts | 56° |
| 2026-04-18 19:59 | -34.46558 | -58.68117 | 992 ft | 102 kts | 54° |
| 2026-04-18 19:59 | -34.46187 | -58.67397 | 984 ft | 101 kts | 55° |
| 2026-04-18 19:59 | -34.45825 | -58.66687 | 983 ft | 97 kts | 54° |
| 2026-04-18 20:00 | -34.45473 | -58.66001 | 983 ft | 94 kts | 54° |
| 2026-04-18 20:00 | -34.45129 | -58.65331 | 987 ft | 93 kts | 54° |
| 2026-04-18 20:00 | -34.44780 | -58.64649 | 982 ft | 96 kts | 54° |
| 2026-04-18 20:00 | -34.44437 | -58.63973 | 986 ft | 94 kts | 55° |
| 2026-04-18 20:01 | -34.44091 | -58.63289 | 983 ft | 94 kts | 55° |
| 2026-04-18 20:01 | -34.43785 | -58.62598 | 981 ft | 96 kts | 71° |
| 2026-04-18 20:01 | -34.43832 | -58.61763 | 901 ft | 104 kts | 111° |
| 2026-04-18 20:01 | -34.44261 | -58.61086 | 868 ft | 101 kts | 134° |
| 2026-04-18 20:02 | -34.44857 | -58.60808 | 878 ft | 90 kts | 193° |
| 2026-04-18 20:02 | -34.45401 | -58.61111 | 876 ft | 85 kts | 218° |
| 2026-04-18 20:02 | -34.45865 | -58.61537 | 872 ft | 86 kts | 221° |
| 2026-04-18 20:02 | -34.46433 | -58.61504 | 774 ft | 93 kts | 141° |
| 2026-04-18 20:03 | -34.46829 | -58.60916 | 519 ft | 89 kts | 106° |
| 2026-04-18 20:03 | -34.46725 | -58.60511 | 401 ft | 78 kts | 36° |
| 2026-04-18 20:03 | -34.46318 | -58.60095 | 187 ft | 70 kts | 41° |
| 2026-04-18 20:03 | -34.45978 | -58.59704 | 48 ft | 66 kts | 41° |
| 2026-04-18 20:04 | -34.45693 | -58.59372 | 21 ft | 36 kts | 44° |
| 2026-04-18 20:04 | -34.45663 | -58.59327 | 21 ft | 3 kts | 105° |
| 2026-04-18 20:04 | -34.45716 | -58.59280 | 21 ft | 19 kts | 147° |
| 2026-04-18 20:04 | -34.45740 | -58.59263 | 21 ft | 0 kts | 149° |
| 2026-04-18 20:05 | -34.45756 | -58.59252 | 21 ft | 9 kts | 150° |
| 2026-04-18 20:05 | -34.45823 | -58.59206 | 21 ft | 12 kts | 148° |
| 2026-04-18 20:05 | -34.45843 | -58.59175 | 21 ft | 2 kts | 81° |
| 2026-04-18 20:06 | -34.45811 | -58.59100 | 21 ft | 10 kts | 60° |
| 2026-04-18 20:06 | -34.45813 | -58.59079 | 21 ft | 6 kts | 150° |
| 2026-04-18 20:06 | -34.45837 | -58.59064 | 21 ft | 0 kts | 152° |